Tikaboo Peak, Nevada Weather observations

Data are for 10 minute period ending at time listed.
 Day   Time   Solar   Ave.   Ave.  Ave.  Vector  Max.   Baro.   Total    
  of    of     Rad.   Air    Rel.  Wind   Wind   Wind  Press.  Precip.   
Year   Day            Temp.  Hum.  Speed  Dir.   Gust                    
2015   (PST)  Kw/m2    F      %     mph   deg.    mph    mb.     in.     
-------------------------------------------------------------------------
  31   13:50   0.45   31.8   100   19.5    23    31.0   758.1    0.05 
  31   14:00   0.49   31.8   100   20.7     5    30.4   758.2    0.04 
  31   14:10   0.48   31.8   100   22.5    17    33.5   758.2    0.05 
  31   14:20   0.43   31.8   100   21.0    26    31.6   758.1    0.03 
  31   14:30   0.40   31.8   100   22.3    37    36.5   758.1    0.03 
  31   14:40   0.37   31.8   100   23.6    31    35.7   758.1    0.03 
  31   14:50   0.35   31.8   100   26.8    42    34.4   758.0    0.02 
  31   15:00   0.32   31.8   100   26.1    50    32.3   758.1    0.00 
  31   15:10   0.28   31.8   100   20.5    53    28.6   758.2    0.00 
  31   15:20   0.25   31.8   100   19.5    47    27.3   758.2    0.00 
  31   15:30   0.22   31.8   100   22.1    44    34.3   758.2    0.00 
  31   15:40   0.19   31.9   100   23.2    39    31.9   758.3    0.00 
  31   15:50   0.16   31.9   100   26.8    39    34.2   758.2    0.00 
  31   16:00   0.14   31.9   100   25.8    39    33.2   758.4    0.00 
  31   16:10   0.11   31.9   100   24.3    36    32.2   758.4    0.00 
  31   16:20   0.09   32.0   100   25.2    39    32.4   758.4    0.00 
  31   16:30   0.07   32.1   100   20.3    38    31.1   758.7    0.00 
  31   16:40   0.05   32.3   100   14.3    28    23.3   759.1    0.00 
  31   16:50   0.03   32.4   100   16.4    18    28.1   759.0    0.00 
  31   17:00   0.02   32.5   100   19.9    22    27.0   759.1    0.00 
  31   17:10   0.01   32.5   100   22.9    33    30.0   759.0    0.00 
  31   17:20   0.00   32.5   100   20.7    28    30.5   759.1    0.00 
  31   17:30   0.00   32.4    99   19.4    11    27.5   759.3    0.00 
  31   17:40   0.00   32.2    97   22.9    20    30.8   759.3    0.00 
  31   17:50   0.00   32.3    94   23.5    26    33.1   759.2    0.00 
  31   18:00   0.00   32.5    92   23.4    28    30.8   759.6    0.00 
  31   18:10   0.00   32.7    90   23.4    37    29.7   759.7    0.00 
  31   18:20   0.00   32.7    90   21.4    37    29.1   759.8    0.00 
  31   18:30   0.00   32.8    90   18.7    24    29.5   760.0    0.00 
  31   18:40   0.00   33.0    89   21.9    23    27.8   760.1    0.00 
  31   18:50   0.00   32.9    88   23.3    32    30.2   760.0    0.00 
  31   19:00   0.00   32.9    87   24.4    30    31.7   760.2    0.00 
  31   19:10   0.00   32.9    87   23.2    27    30.2   760.3    0.00 
  31   19:20   0.00   32.9    86   23.2    22    30.8   760.3    0.00 
  31   19:30   0.00   32.9    83   27.3    28    33.7   760.2    0.00 
  31   19:40   0.00   32.9    82   28.6    28    35.6   760.1    0.00 
  31   19:50   0.00   33.0    80   29.5    29    36.2   760.2    0.00 
  31   20:00   0.00   32.9    81   27.3    33    34.7   760.2    0.00 
  31   20:10   0.00   32.9    80   25.8    29    38.4   760.3    0.00 
  31   20:20   0.00   33.0    74   27.5    29    36.1   760.3    0.00 
  31   20:30   0.00   33.1    70   27.2    30    33.5   760.4    0.00 
  31   20:40   0.00   32.9    76   24.7    30    33.0   760.5    0.00 
  31   20:50   0.00   32.8    74   26.0    29    35.4   760.5    0.00 
  31   21:00   0.00   32.8    72   23.6    27    34.6   760.7    0.00 
  31   21:10   0.00   32.8    68   27.6    29    36.8   760.6    0.00 
  31   21:20   0.00   32.9    66   28.4    26    39.2   760.8    0.00 
  31   21:30   0.00   32.7    66   29.5    30    40.1   760.7    0.00 
  31   21:40   0.00   32.6    66   30.5    29    42.0   760.7    0.00 
  31   21:50   0.00   32.5    64   32.8    32    43.6   760.7    0.00 
  31   22:00   0.00   32.3    62   35.6    36    42.6   760.9    0.00 
  31   22:10   0.00   32.1    62   34.7    40    39.9   761.0    0.00 
  31   22:20   0.00   32.1    61   34.6    43    39.2   760.9    0.00 
  31   22:30   0.00   32.4    60   32.8    43    37.1   761.1    0.00 
  31   22:40   0.00   32.5    59   30.7    43    35.9   761.2    0.00 
  31   22:50   0.00   32.6    57   31.8    41    35.7   761.3    0.00 
  31   23:00   0.00   32.7    56   32.5    40    37.9   761.5    0.00 
  31   23:10   0.00   32.5    57   32.4    40    38.5   761.4    0.00 
  31   23:20   0.00   32.3    58   33.9    40    41.1   761.4    0.00 
  31   23:30   0.00   32.3    58   33.9    42    39.2   761.6    0.00 
  31   23:40   0.00   32.5    56   32.5    42    38.2   761.7    0.00 
  31   23:50   0.00   32.9    53   31.7    44    40.1   761.7    0.00 
  32    0:00   0.00   33.0    52   33.1    43    38.6   761.8    0.00 
  32    0:10   0.00   32.9    52   31.2    42    37.6   761.8    0.00 
  32    0:20   0.00   33.1    50   29.7    45    35.3   761.8    0.00 
  32    0:30   0.00   33.5    46   27.9    48    32.0   761.8    0.00 
  32    0:40   0.00   33.9    42   26.4    48    31.8   761.7    0.00 
  32    0:50   0.00   34.5    38   27.2    48    32.5   761.7    0.00 
  32    1:00   0.00   34.6    38   25.0    50    30.9   761.8    0.00 
  32    1:10   0.00   34.3    40   23.5    52    26.5   761.8    0.00 
  32    1:20   0.00   34.4    40   24.1    52    27.5   761.9    0.00 
  32    1:30   0.00   34.4    40   24.6    50    30.0   762.0    0.00 
  32    1:40   0.00   34.2    41   24.9    52    29.9   762.1    0.00 
  32    1:50   0.00   33.8    43   22.5    56    29.9   762.1    0.00 
  32    2:00   0.00   34.1    38   23.3    54    29.5   762.3    0.00 
  32    2:10   0.00   33.8    40   25.2    50    31.8   762.2    0.00 
  32    2:20   0.00   33.4    41   27.5    46    32.2   762.2    0.00 
  32    2:30   0.00   33.6    39   26.9    45    33.0   762.2    0.00 
  32    2:40   0.00   34.2    34   26.2    42    32.7   762.2    0.00 
  32    2:50   0.00   33.6    39   27.8    42    32.7   762.3    0.00 
  32    3:00   0.00   33.2    42   28.2    40    31.9   762.5    0.00 
  32    3:10   0.00   32.5    44   28.9    42    33.1   762.4    0.00 
  32    3:20   0.00   33.0    40   27.4    42    33.0   762.3    0.00 
  32    3:30   0.00   33.0    39   27.2    41    30.2   762.4    0.00 
  32    3:40   0.00   33.2    38   27.2    38    30.0   762.5    0.00 
  32    3:50   0.00   33.2    37   24.6    39    28.1   762.6    0.00 
  32    4:00   0.00   33.7    34   20.8    39    25.4   762.9    0.00 
  32    4:10   0.00   34.2    32   22.5    37    27.2   762.9    0.00 
  32    4:20   0.00   34.9    28   22.9    32    26.8   762.9    0.00 
  32    4:30   0.00   35.3    26   24.4    31    26.6   762.8    0.00 
  32    4:40   0.00   36.0    23   23.0    33    24.5   762.8    0.00 
  32    4:50   0.00   36.1    24   22.1    33    24.8   762.9    0.00 
  32    5:00   0.00   36.0    22   22.5    28    24.3   763.1    0.00 
  32    5:10   0.00   36.3    21   21.1    27    23.7   762.9    0.00 
  32    5:20   0.00   36.8    18   22.7    23    25.1   762.9    0.00 
  32    5:30   0.00   37.2    17   23.5    20    25.9   762.9    0.00 
  32    5:40   0.00   37.4    16   24.1    14    25.4   762.9    0.00 
  32    5:50   0.00   37.5    15   22.9     8    24.8   763.0    0.00 
  32    6:00   0.00   38.0    14   23.5     7    25.6   763.2    0.00 
  32    6:10   0.00   38.2    13   23.6     9    24.8   763.1    0.00 
  32    6:20   0.00   37.9    15   22.2   359    24.5   763.2    0.00 
  32    6:30   0.00   36.5    20   21.2     7    22.7   763.3    0.00 
  32    6:40   0.00   36.3    20   20.9     6    22.9   763.3    0.00 
  32    6:50   0.02   36.9    18   17.8     9    20.8   763.5    0.00 
  32    7:00   0.06   37.5    15   17.4    18    19.1   763.7    0.00 
  32    7:10   0.09   38.3    13   17.0    26    18.5   763.8    0.00 
  32    7:20   0.12   38.1    13   15.4    22    16.5   763.7    0.00 
  32    7:30   0.16   39.4    10   17.4    23    19.3   763.7    0.00 
  32    7:40   0.19   39.4    11   17.1    23    19.2   763.8    0.00 
  32    7:50   0.22   39.3    11   16.9    23    18.6   763.9    0.00 
  32    8:00   0.25   39.9    10   16.0    31    17.5   764.1    0.00 
  32    8:10   0.28   40.3     9   15.8    31    17.4   764.0    0.00 
  32    8:20   0.32   39.9    10   14.1    30    15.3   764.0    0.00 
  32    8:30   0.35   40.2    11   12.0    33    14.0   764.2    0.00 
  32    8:40   0.38   40.2    11   12.5    26    13.9   764.2    0.00 
  32    8:50   0.41   40.4    10   12.1    27    12.9   764.3    0.00 
  32    9:00   0.43   41.0    10   11.8    19    14.8   764.5    0.00 
  32    9:10   0.47   41.5    10   12.1    19    14.8   764.5    0.00 
  32    9:20   0.46   41.7    12    8.0    44    11.8   764.6    0.00 
  32    9:30   0.37   41.0    10    9.6    36    12.2   764.7    0.00 
  32    9:40   0.53   41.6    11   10.5     8    12.5   764.8    0.00 
  32    9:50   0.55   44.1    16    8.9   351    12.3   764.8    0.00 
  32   10:00   0.56   49.1    14    6.5   343     8.9   765.0    0.00 
  32   10:10   0.58   50.7    14    5.5   340     6.8   765.0    0.00 
  32   10:20   0.60   51.7    12    5.0   346     6.4   765.1    0.00 
  32   10:30   0.61   50.5    11    4.0   348     5.6   765.2    0.00 
  32   10:40   0.62   49.6    12    4.1   328     6.6   765.3    0.00 
  32   10:50   0.63   48.7    11    3.5   331     5.8   765.3    0.00 
  32   11:00   0.64   48.1    14    4.3   325     7.1   765.2    0.00 
  32   11:10   0.64   48.1    14    4.4   328     6.1   765.3    0.00 
  32   11:20   0.64   47.1    13    5.1   328     7.9   765.2    0.00 
  32   11:30   0.65   47.6    17    7.0   331     8.8   765.0    0.00 
  32   11:40   0.65   49.5    14    6.7   328     8.6   764.9    0.00 
  32   11:50   0.66   47.7    14    5.2   326     9.1   764.9    0.00 
  32   12:00   0.63   47.1    15    5.3   323     7.7   764.9    0.00 
  32   12:10   0.64   46.7    14    6.3   322     7.5   764.8    0.00 
  32   12:20   0.64   47.0    14    5.5   333     7.9   764.7    0.00 
  32   12:30   0.63   48.0    16    6.5   335    11.1   764.7    0.00 
  32   12:40   0.60   48.2    17    5.8   329    12.1   764.6    0.00 
  32   12:50   0.59   48.2    16    4.9   333    11.1   764.6    0.00 
  32   13:00   0.54   48.0    18    3.5   322    11.8   764.5    0.00 
  32   13:10   0.41   48.5    18    3.8   318    12.2   764.5    0.00 
  32   13:20   0.41   47.6    18    4.4   329    12.5   764.4    0.00 
  32   13:30   0.42   47.3    14    3.8   333    12.4   764.2    0.00 
  32   13:40   0.33   46.2    15    2.9   321     9.1   764.1    0.00 

Return to Tikaboo Peak graphs page.


Western Regional Climate Center,wrcc@dri.edu